Time;durP1;ratioP1;P1;durP2;ratioP2;P2;SDS_P1;SDS_P2;PMS_P1;PMS_P2;Temp;Humidity;BMP_temperature;BMP_pressure;BME280_temperature;BME280_humidity;BME280_pressure;Samples;Min_cycle;Max_cycle;Signal;HPM_P1;HPM_P2
2022/06/14 00:02:51;;;;;;;17.50;4.38;;;10.40;1.00;;;;;;5054242;28;20052;-23
2022/06/14 00:05:17;;;;;;;21.73;4.28;;;10.30;1.00;;;;;;5054539;28;20045;-24
2022/06/14 00:07:42;;;;;;;14.88;4.38;;;10.30;1.00;;;;;;5053981;28;20131;-24
2022/06/14 00:10:08;;;;;;;19.17;4.53;;;10.40;1.00;;;;;;5053874;28;20045;-24
2022/06/14 00:12:34;;;;;;;12.93;4.20;;;10.40;1.00;;;;;;5053573;28;20410;-24
2022/06/14 00:15:00;;;;;;;6.70;3.40;;;10.40;1.00;;;;;;5053850;28;20053;-24
2022/06/14 00:17:26;;;;;;;14.68;3.92;;;10.50;1.00;;;;;;5054049;28;20071;-24
2022/06/14 00:19:51;;;;;;;15.55;4.80;;;10.50;1.00;;;;;;5053999;28;20493;-24
2022/06/14 00:22:17;;;;;;;21.45;5.65;;;10.60;1.00;;;;;;5053441;28;20418;-24
2022/06/14 00:24:43;;;;;;;16.90;4.28;;;10.60;1.00;;;;;;5054273;28;20044;-24
2022/06/14 00:27:08;;;;;;;18.00;5.50;;;10.70;1.00;;;;;;5052890;28;20056;-24
2022/06/14 00:29:34;;;;;;;14.25;3.78;;;10.60;99.90;;;;;;5053621;28;20174;-24
2022/06/14 00:31:59;;;;;;;18.92;4.38;;;10.70;99.90;;;;;;5053535;28;20045;-23
2022/06/14 00:34:25;;;;;;;12.57;3.80;;;10.80;99.90;;;;;;5052690;28;20053;-23
2022/06/14 00:36:54;;;;;;;16.05;4.43;;;10.70;99.90;;;;;;5052376;28;20052;-24
2022/06/14 00:39:19;;;;;;;19.52;4.53;;;10.60;99.90;;;;;;5054057;28;20087;-24
2022/06/14 00:41:49;;;;;;;12.07;4.30;;;10.40;99.90;;;;;;5053429;28;20080;-24
2022/06/14 00:44:27;;;;;;;14.93;4.00;;;10.30;99.90;;;;;;5053933;28;20049;-24
2022/06/14 00:47:08;;;;;;;16.10;5.03;;;10.20;99.90;;;;;;5053248;28;20106;-24
2022/06/14 00:49:41;;;;;;;24.02;5.30;;;9.80;99.90;;;;;;5054209;28;20046;-23
2022/06/14 00:52:19;;;;;;;13.18;4.70;;;9.60;99.90;;;;;;5053431;28;20110;-24
2022/06/14 00:54:50;;;;;;;13.88;4.85;;;9.30;99.90;;;;;;5053389;28;20052;-24
2022/06/14 00:57:21;;;;;;;19.00;5.55;;;9.10;99.90;;;;;;5053468;28;20543;-24
2022/06/14 01:00:01;;;;;;;19.20;5.93;;;8.90;99.90;;;;;;5053366;28;20049;-24
2022/06/14 01:02:30;;;;;;;18.65;5.43;;;8.80;99.90;;;;;;5053888;28;20045;-24
2022/06/14 01:05:01;;;;;;;17.17;5.03;;;8.70;99.90;;;;;;5053217;28;20479;-24
2022/06/14 01:07:32;;;;;;;18.73;6.13;;;8.60;99.90;;;;;;5053568;28;20041;-23
2022/06/14 01:10:16;;;;;;;21.65;6.25;;;8.50;99.90;;;;;;5053208;28;20045;-24
2022/06/14 01:12:46;;;;;;;15.30;5.25;;;8.40;99.90;;;;;;5053101;28;20053;-24
2022/06/14 01:15:27;;;;;;;19.85;6.32;;;8.30;99.90;;;;;;5053153;28;20048;-24
2022/06/14 01:18:07;;;;;;;14.60;5.30;;;8.20;99.90;;;;;;5053169;28;20044;-23
2022/06/14 01:20:34;;;;;;;18.40;6.03;;;8.10;99.90;;;;;;5054011;28;20049;-23
2022/06/14 01:23:01;;;;;;;19.42;6.57;;;8.00;99.90;;;;;;5053306;28;20053;-24
2022/06/14 01:25:30;;;;;;;24.48;7.30;;;7.90;1.00;;;;;;5053108;28;20128;-24
2022/06/14 01:27:57;;;;;;;19.67;7.20;;;7.80;1.00;;;;;;5053053;28;20179;-24
2022/06/14 01:30:28;;;;;;;17.42;6.53;;;7.70;1.00;;;;;;5053077;28;20514;-24
2022/06/14 01:33:06;;;;;;;22.40;9.02;;;7.70;1.00;;;;;;5053908;28;20045;-24
2022/06/14 01:35:36;;;;;;;23.38;7.28;;;7.60;1.00;;;;;;5051887;28;20183;-24
2022/06/14 01:38:06;;;;;;;19.88;7.38;;;7.60;1.00;;;;;;5053609;28;20049;-24
2022/06/14 01:40:47;;;;;;;16.95;7.53;;;7.60;1.00;;;;;;5052901;28;20102;-24
2022/06/14 01:43:24;;;;;;;19.33;7.40;;;7.60;1.00;;;;;;5053819;28;20041;-23
2022/06/14 01:46:18;;;;;;;17.95;7.13;;;7.70;1.00;;;;;;5054522;28;20098;-23
2022/06/14 01:52:02;;;;;;;24.20;8.63;;;7.90;1.00;;;;;;5055581;28;20064;-24
2022/06/14 01:54:40;;;;;;;21.25;6.80;;;7.90;1.00;;;;;;5055464;28;20119;-23
2022/06/14 01:57:23;;;;;;;18.73;7.07;;;7.90;1.00;;;;;;5056810;28;20041;-23
2022/06/14 02:00:07;;;;;;;21.58;7.40;;;7.80;1.00;;;;;;5056514;28;20053;-23
2022/06/14 02:02:39;;;;;;;19.70;7.15;;;7.80;1.00;;;;;;5055137;28;20120;-23
2022/06/14 02:05:16;;;;;;;24.73;7.97;;;7.70;1.00;;;;;;5056330;28;20055;-24
2022/06/14 02:07:50;;;;;;;22.15;7.43;;;7.60;1.00;;;;;;5056844;28;20054;-24
2022/06/14 02:10:29;;;;;;;17.83;6.13;;;7.60;1.00;;;;;;5056160;28;20048;-24
2022/06/14 02:13:16;;;;;;;14.10;6.45;;;7.50;1.00;;;;;;5056729;28;20127;-23
2022/06/14 02:15:45;;;;;;;21.60;7.28;;;7.40;1.00;;;;;;5056662;28;20045;-23
2022/06/14 02:18:24;;;;;;;14.65;6.50;;;7.30;1.00;;;;;;5056021;28;20049;-23
2022/06/14 02:20:58;;;;;;;14.60;6.43;;;7.30;1.00;;;;;;5055833;28;20084;-24
2022/06/14 02:23:25;;;;;;;15.13;6.93;;;7.20;1.00;;;;;;5055732;28;20061;-24
2022/06/14 02:26:19;;;;;;;20.65;7.40;;;7.20;1.00;;;;;;5055947;28;20053;-24
2022/06/14 02:28:55;;;;;;;18.52;6.47;;;7.20;19.10;;;;;;5055912;28;20136;-23
2022/06/14 02:31:28;;;;;;;16.00;6.72;;;7.10;21.50;;;;;;5055725;28;20053;-23
2022/06/14 02:34:03;;;;;;;27.58;6.82;;;7.10;19.60;;;;;;5056399;28;20045;-23
2022/06/14 02:37:12;;;;;;;25.10;8.43;;;7.00;21.40;;;;;;5056558;28;20053;-23
2022/06/14 02:39:59;;;;;;;20.17;7.07;;;7.00;60.60;;;;;;5035732;28;20238;-24
2022/06/14 02:42:36;;;;;;;23.85;7.40;;;7.00;73.10;;;;;;5055895;28;20072;-24
2022/06/14 02:45:15;;;;;;;20.40;7.72;;;7.00;83.60;;;;;;5055445;28;20063;-23
2022/06/14 02:47:58;;;;;;;21.90;7.63;;;7.00;99.90;;;;;;5056116;28;20049;-23
2022/06/14 02:50:27;;;;;;;20.95;7.43;;;7.10;99.90;;;;;;5055523;28;20091;-23
2022/06/14 02:53:14;;;;;;;19.23;6.75;;;7.00;99.90;;;;;;5055959;28;20045;-23
2022/06/14 02:55:54;;;;;;;16.85;7.18;;;7.10;99.90;;;;;;5055992;28;20080;-23
2022/06/14 02:58:45;;;;;;;26.17;8.75;;;7.20;99.90;;;;;;5053478;28;20059;-23
2022/06/14 03:01:17;;;;;;;21.08;8.35;;;7.20;99.90;;;;;;5047361;28;20136;-24
2022/06/14 03:04:06;;;;;;;18.52;8.05;;;7.20;99.90;;;;;;5055795;28;20052;-24
2022/06/14 03:06:48;;;;;;;17.77;8.43;;;7.30;99.90;;;;;;5055592;28;20057;-23
2022/06/14 03:09:23;;;;;;;18.33;8.13;;;7.40;99.90;;;;;;5055035;28;20127;-23
2022/06/14 03:12:10;;;;;;;23.40;8.73;;;7.40;99.90;;;;;;5055903;28;20433;-23
2022/06/14 03:15:00;;;;;;;25.60;9.25;;;7.40;99.90;;;;;;5054972;28;20060;-24
2022/06/14 03:17:39;;;;;;;20.90;9.02;;;7.50;99.90;;;;;;5055563;28;20048;-23
2022/06/14 03:20:12;;;;;;;21.38;8.63;;;7.60;99.90;;;;;;5054901;28;20048;-24
2022/06/14 03:22:47;;;;;;;18.05;8.07;;;7.60;99.90;;;;;;5055170;28;20061;-24
2022/06/14 03:25:35;;;;;;;22.00;8.85;;;7.60;99.90;;;;;;5055147;28;20063;-24
2022/06/14 03:28:07;;;;;;;20.40;8.68;;;7.70;99.90;;;;;;5054798;28;20049;-23
2022/06/14 03:30:47;;;;;;;19.63;7.68;;;7.70;99.90;;;;;;5054671;28;20041;-24
2022/06/14 03:33:21;;;;;;;22.58;8.85;;;7.70;99.90;;;;;;5055215;28;20053;-23
2022/06/14 03:35:49;;;;;;;18.75;7.90;;;7.70;99.90;;;;;;5054225;28;20053;-24
2022/06/14 03:38:20;;;;;;;18.13;8.13;;;7.70;99.90;;;;;;5054830;28;20080;-23
2022/06/14 03:40:47;;;;;;;24.92;9.27;;;7.70;99.90;;;;;;5054467;28;20056;-23
2022/06/14 03:43:14;;;;;;;16.17;7.32;;;7.70;99.90;;;;;;5054050;28;20071;-24
2022/06/14 03:45:51;;;;;;;22.60;8.10;;;7.80;99.90;;;;;;5054408;28;20045;-24
2022/06/14 03:48:17;;;;;;;20.65;7.35;;;7.80;99.90;;;;;;5055059;28;20169;-24
2022/06/14 03:51:01;;;;;;;20.20;9.40;;;7.80;99.90;;;;;;5054351;28;20049;-23
2022/06/14 03:53:42;;;;;;;28.30;8.38;;;7.80;99.90;;;;;;5054587;28;20045;-24
2022/06/14 03:56:55;;;;;;;18.95;7.85;;;7.80;1.00;;;;;;5054842;28;20053;-24
2022/06/14 04:00:05;;;;;;;23.30;8.07;;;7.80;1.00;;;;;;5030664;28;20060;-24
2022/06/14 04:02:55;;;;;;;17.88;8.30;;;7.80;1.00;;;;;;5053701;28;20077;-24
2022/06/14 04:05:48;;;;;;;15.88;8.43;;;7.80;1.00;;;;;;5054377;28;20132;-23
2022/06/14 04:08:44;;;;;;;17.83;8.38;;;7.90;1.00;;;;;;5053856;28;20040;-24
2022/06/14 04:11:24;;;;;;;16.30;7.95;;;7.90;1.00;;;;;;5054035;28;20052;-24
2022/06/14 04:14:05;;;;;;;23.52;9.00;;;8.00;1.00;;;;;;5054230;28;20045;-24
2022/06/14 04:16:49;;;;;;;21.60;7.78;;;8.10;1.00;;;;;;5053527;28;20395;-24
2022/06/14 04:19:39;;;;;;;21.88;8.60;;;8.20;1.00;;;;;;5053834;28;20091;-24
2022/06/14 04:22:43;;;;;;;17.65;7.15;;;8.30;1.00;;;;;;5052478;28;20495;-24
2022/06/14 04:25:25;;;;;;;17.20;8.27;;;8.40;1.00;;;;;;5052972;28;20487;-24
2022/06/14 04:28:09;;;;;;;24.75;7.70;;;8.60;1.00;;;;;;5053766;28;20048;-24
2022/06/14 04:30:44;;;;;;;20.10;8.10;;;8.60;1.00;;;;;;5052780;28;20520;-24
2022/06/14 04:33:17;;;;;;;17.33;7.32;;;8.80;1.00;;;;;;5054499;28;20051;-24
2022/06/14 04:36:02;;;;;;;21.45;7.50;;;8.90;1.00;;;;;;5054461;28;20127;-24
2022/06/14 04:38:42;;;;;;;14.35;7.00;;;9.00;1.00;;;;;;5053647;28;20499;-23
2022/06/14 04:41:35;;;;;;;11.95;6.53;;;9.10;1.00;;;;;;5054397;28;20080;-24
2022/06/14 04:44:21;;;;;;;14.98;6.13;;;9.20;1.00;;;;;;5052890;28;20044;-24
2022/06/14 04:46:56;;;;;;;18.58;7.20;;;9.30;1.00;;;;;;5053548;28;20502;-24
2022/06/14 04:50:02;;;;;;;18.73;6.15;;;9.40;1.00;;;;;;5053552;28;20513;-24
2022/06/14 04:52:32;;;;;;;12.80;5.93;;;9.60;1.00;;;;;;5052145;28;20045;-24
2022/06/14 04:55:04;;;;;;;19.30;6.35;;;9.80;1.00;;;;;;5053807;28;20049;-24
2022/06/14 04:57:48;;;;;;;14.38;6.00;;;9.90;1.00;;;;;;5053432;28;20041;-24
2022/06/14 05:00:23;;;;;;;16.75;6.18;;;10.00;1.00;;;;;;5053435;28;20045;-24
2022/06/14 05:03:00;;;;;;;13.73;6.03;;;10.10;1.00;;;;;;5053314;28;20041;-24
2022/06/14 05:05:32;;;;;;;13.38;5.13;;;10.40;1.00;;;;;;5053385;28;20053;-24
2022/06/14 05:08:25;;;;;;;16.00;6.22;;;10.60;1.00;;;;;;5053393;28;20045;-24
2022/06/14 05:10:54;;;;;;;11.75;4.75;;;11.00;99.90;;;;;;5053030;28;20059;-24
2022/06/14 05:13:53;;;;;;;15.63;5.80;;;11.30;99.90;;;;;;5053294;28;20060;-24
2022/06/14 05:16:29;;;;;;;14.57;5.40;;;11.60;99.90;;;;;;5044730;28;20413;-24
2022/06/14 05:19:01;;;;;;;13.30;4.88;;;11.90;1.00;;;;;;5053829;28;20049;-24
2022/06/14 05:21:33;;;;;;;14.50;5.65;;;12.10;1.00;;;;;;5055175;28;20041;-24
2022/06/14 05:24:00;;;;;;;10.30;4.13;;;12.20;1.00;;;;;;5057014;28;20061;-24
2022/06/14 05:26:39;;;;;;;12.57;4.13;;;12.20;99.90;;;;;;5057286;28;20471;-24
2022/06/14 05:29:35;;;;;;;18.13;4.75;;;12.40;99.90;;;;;;5056755;28;20040;-24
2022/06/14 05:32:32;;;;;;;15.32;4.45;;;12.60;99.90;;;;;;5056959;28;20175;-24
2022/06/14 05:35:30;;;;;;;13.20;4.25;;;12.60;48.00;;;;;;5056288;28;20048;-24
2022/06/14 05:38:04;;;;;;;12.32;4.38;;;12.50;1.00;;;;;;5056866;28;20139;-24
2022/06/14 05:41:00;;;;;;;17.58;6.15;;;12.40;1.00;;;;;;5056113;28;20053;-24
2022/06/14 05:43:29;;;;;;;12.10;3.97;;;12.30;1.00;;;;;;5056817;28;20053;-24
2022/06/14 05:46:18;;;;;;;11.27;4.05;;;12.60;59.40;;;;;;5056728;28;20084;-24
2022/06/14 05:48:52;;;;;;;13.95;3.75;;;12.70;1.00;;;;;;5056725;28;20132;-24
2022/06/14 05:51:26;;;;;;;12.70;4.38;;;12.60;1.00;;;;;;5057458;28;20366;-24
2022/06/14 05:54:20;;;;;;;14.63;4.47;;;12.50;1.00;;;;;;5057154;28;20045;-24
2022/06/14 05:56:52;;;;;;;14.35;5.38;;;12.40;1.00;;;;;;5056028;28;20049;-24
2022/06/14 05:59:32;;;;;;;18.13;4.55;;;12.30;11.20;;;;;;5039198;28;20056;-24
2022/06/14 06:02:07;;;;;;;11.98;4.18;;;12.60;57.70;;;;;;5056465;28;20045;-24
2022/06/14 06:04:47;;;;;;;14.70;4.15;;;13.30;75.60;;;;;;5057229;28;20052;-24
2022/06/14 06:07:16;;;;;;;12.15;3.85;;;13.90;1.00;;;;;;5057132;28;20045;-24
2022/06/14 06:09:52;;;;;;;14.18;4.90;;;14.20;99.90;;;;;;5055462;28;20051;-24
2022/06/14 06:12:47;;;;;;;9.90;3.60;;;14.50;99.90;;;;;;5056838;28;20150;-24
2022/06/14 06:15:20;;;;;;;9.70;3.60;;;15.10;99.90;;;;;;5056758;28;20045;-24
2022/06/14 06:17:48;;;;;;;;;;;15.60;99.90;;;;;;5057146;28;20045;-24
2022/06/14 06:20:55;;;;;;;10.75;3.22;;;15.80;59.80;;;;;;5055091;28;19921;-24
2022/06/14 06:23:28;;;;;;;12.75;3.50;;;16.20;1.00;;;;;;5056179;28;20068;-24
2022/06/14 06:25:55;;;;;;;13.38;2.85;;;16.40;1.00;;;;;;5056291;28;20044;-24
2022/06/14 06:28:25;;;;;;;11.02;3.17;;;16.40;1.00;;;;;;5055888;28;20053;-24
2022/06/14 06:31:29;;;;;;;8.80;3.17;;;16.30;1.00;;;;;;5056149;28;20092;-24
2022/06/14 06:33:57;;;;;;;11.13;3.22;;;16.20;1.00;;;;;;5032828;28;20049;-24
2022/06/14 06:36:31;;;;;;;10.32;3.22;;;16.50;1.00;;;;;;5046624;28;20092;-24
2022/06/14 06:39:17;;;;;;;7.38;2.40;;;16.80;99.90;;;;;;5055689;28;20127;-24
2022/06/14 06:41:52;;;;;;;7.60;2.97;;;17.00;99.90;;;;;;5056174;28;20045;-24
2022/06/14 06:44:35;;;;;;;8.45;2.78;;;17.10;99.90;;;;;;5055246;28;20395;-24
2022/06/14 06:47:13;;;;;;;6.20;2.13;;;17.20;99.90;;;;;;5056082;28;20045;-24
2022/06/14 06:50:08;;;;;;;8.98;1.95;;;17.50;99.90;;;;;;5055243;28;20071;-24
2022/06/14 06:52:56;;;;;;;6.60;1.88;;;17.60;99.90;;;;;;5055380;28;20060;-24
2022/06/14 06:55:46;;;;;;;7.00;2.20;;;17.50;99.90;;;;;;5055426;28;20137;-24
2022/06/14 06:58:24;;;;;;;4.95;1.38;;;17.70;99.90;;;;;;5056001;28;20447;-24
2022/06/14 07:00:56;;;;;;;6.85;1.27;;;17.80;99.90;;;;;;5055532;28;20040;-24
2022/06/14 07:03:45;;;;;;;7.07;1.53;;;18.10;99.90;;;;;;5055344;28;20048;-24
2022/06/14 07:06:19;;;;;;;7.55;2.40;;;18.40;99.90;;;;;;5054914;28;20494;-24
2022/06/14 07:08:52;;;;;;;5.13;1.67;;;17.90;63.00;;;;;;5055170;28;20221;-24
2022/06/14 07:11:21;;;;;;;6.15;1.70;;;17.90;82.60;;;;;;5056025;28;20086;-23
2022/06/14 07:14:03;;;;;;;8.70;2.25;;;17.70;99.90;;;;;;5055022;28;20498;-24
2022/06/14 07:16:44;;;;;;;7.72;1.33;;;17.70;1.00;;;;;;5055864;28;20053;-24
2022/06/14 07:19:37;;;;;;;7.97;1.80;;;18.00;1.00;;;;;;5055053;28;20080;-24
2022/06/14 07:22:18;;;;;;;6.57;1.35;;;18.00;1.00;;;;;;5055021;28;20057;-24
2022/06/14 07:25:11;;;;;;;4.60;1.35;;;18.10;1.00;;;;;;5054879;28;20056;-24
2022/06/14 07:27:44;;;;;;;6.63;1.75;;;18.10;1.00;;;;;;5054778;28;20045;-24
2022/06/14 07:30:18;;;;;;;6.25;1.17;;;17.90;1.00;;;;;;5055356;28;20037;-24
2022/06/14 07:32:48;;;;;;;8.15;1.40;;;17.80;8.80;;;;;;5055290;28;20379;-24
2022/06/14 07:35:15;;;;;;;6.82;1.70;;;17.70;1.00;;;;;;5053670;28;20056;-24
2022/06/14 07:38:05;;;;;;;4.13;1.13;;;18.10;1.00;;;;;;5055422;28;20040;-24
2022/06/14 07:40:36;;;;;;;4.22;1.10;;;17.60;1.00;;;;;;5054165;28;20055;-24
2022/06/14 07:43:06;;;;;;;4.90;1.33;;;17.10;1.00;;;;;;5053857;28;20045;-24
2022/06/14 07:45:37;;;;;;;4.68;0.90;;;17.60;1.00;;;;;;5054952;28;20045;-24
2022/06/14 07:48:08;;;;;;;8.35;1.13;;;17.90;1.00;;;;;;5054702;28;20545;-24
2022/06/14 07:51:10;;;;;;;5.43;1.52;;;18.30;1.00;;;;;;5054968;28;20049;-24
2022/06/14 07:53:41;;;;;;;6.32;1.35;;;18.60;1.00;;;;;;5050189;28;20118;-24
2022/06/14 07:56:20;;;;;;;3.60;0.75;;;18.70;99.90;;;;;;5054797;28;20053;-24
2022/06/14 07:58:48;;;;;;;4.88;1.38;;;18.70;99.90;;;;;;5054821;28;20053;-24
2022/06/14 08:01:20;;;;;;;3.35;0.90;;;19.00;99.90;;;;;;5054057;28;20097;-24
2022/06/14 08:03:52;;;;;;;5.32;1.00;;;19.50;99.90;;;;;;5059001;28;20052;-24
2022/06/14 08:06:20;;;;;;;6.53;1.67;;;19.90;99.90;;;;;;5073341;28;20044;-24
2022/06/14 08:08:53;;;;;;;7.38;1.15;;;20.20;99.90;;;;;;5072152;28;20052;-24
2022/06/14 08:11:27;;;;;;;6.35;1.33;;;20.50;99.90;;;;;;5074323;28;20048;-24
2022/06/14 08:13:59;;;;;;;5.50;1.25;;;20.40;99.90;;;;;;5074813;28;20051;-24
2022/06/14 08:16:27;;;;;;;4.57;1.23;;;20.70;99.90;;;;;;5057332;28;20041;-24
2022/06/14 08:19:00;;;;;;;6.50;1.05;;;20.90;99.90;;;;;;5052705;28;20546;-24
2022/06/14 08:21:42;;;;;;;5.88;1.48;;;20.20;99.90;;;;;;5053514;28;20468;-24
2022/06/14 08:24:14;;;;;;;4.10;1.27;;;19.00;99.90;;;;;;5035981;28;20060;-24
2022/06/14 08:27:01;;;;;;;5.13;1.45;;;18.60;99.90;;;;;;5064011;28;20102;-24
2022/06/14 08:29:44;;;;;;;3.35;0.88;;;18.30;99.90;;;;;;5073789;28;20505;-24
2022/06/14 08:32:16;;;;;;;3.58;1.23;;;18.50;99.90;;;;;;5073689;28;20041;-24
2022/06/14 08:34:58;;;;;;;4.43;0.90;;;18.90;99.90;;;;;;5067648;28;20067;-24
2022/06/14 08:37:25;;;;;;;6.22;1.10;;;19.50;99.90;;;;;;5054048;28;20041;-24
2022/06/14 08:40:40;;;;;;;3.53;0.80;;;19.30;99.90;;;;;;5059829;28;20046;-24
2022/06/14 08:43:11;;;;;;;3.60;0.73;;;19.40;99.90;;;;;;5037057;28;20053;-24
2022/06/14 08:45:56;;;;;;;5.68;0.82;;;20.00;99.90;;;;;;5058332;28;20407;-24
2022/06/14 08:48:41;;;;;;;2.08;0.55;;;19.60;99.90;;;;;;5053519;28;20183;-24
2022/06/14 08:51:18;;;;;;;3.22;0.85;;;19.10;99.90;;;;;;5053561;28;20048;-24
2022/06/14 08:53:47;;;;;;;7.05;2.28;;;19.10;99.90;;;;;;5053381;28;20368;-24
2022/06/14 08:56:28;;;;;;;3.42;1.15;;;19.50;99.90;;;;;;5055595;28;20194;-24
2022/06/14 08:59:09;;;;;;;4.72;1.25;;;20.10;99.90;;;;;;5057668;28;20098;-24
2022/06/14 09:02:02;;;;;;;6.47;1.48;;;20.40;99.90;;;;;;5057515;28;20143;-24
2022/06/14 09:04:52;;;;;;;2.72;0.90;;;20.40;99.90;;;;;;5057191;28;20395;-24
2022/06/14 09:07:56;;;;;;;5.18;1.00;;;20.40;99.90;;;;;;5061620;28;20047;-24
2022/06/14 09:10:37;;;;;;;5.32;1.58;;;19.70;99.90;;;;;;5077312;28;20048;-24
2022/06/14 09:13:31;;;;;;;4.45;1.40;;;19.30;99.90;;;;;;5071779;28;20474;-24
2022/06/14 09:16:34;;;;;;;5.70;1.05;;;18.80;99.90;;;;;;5055802;28;20114;-25
2022/06/14 09:19:21;;;;;;;4.57;1.42;;;18.50;99.90;;;;;;5075354;28;20056;-24
2022/06/14 09:22:19;;;;;;;5.95;1.75;;;18.30;1.00;;;;;;5077768;28;20385;-24
2022/06/14 09:25:13;;;;;;;7.85;2.03;;;18.60;1.00;;;;;;5072206;28;20059;-24
2022/06/14 09:27:54;;;;;;;4.60;1.00;;;18.40;1.00;;;;;;5076020;28;20502;-24
2022/06/14 09:30:57;;;;;;;3.47;1.20;;;18.10;1.00;;;;;;5066120;28;20473;-24
2022/06/14 09:33:52;;;;;;;5.15;1.00;;;18.70;99.90;;;;;;5056940;28;20513;-24
2022/06/14 09:36:45;;;;;;;3.90;1.30;;;19.80;99.90;;;;;;5057748;28;20045;-25
2022/06/14 09:39:25;;;;;;;;;;;20.70;99.90;;;;;;5062860;28;20426;-25
2022/06/14 09:42:31;;;;;;;5.10;1.55;;;21.00;99.90;;;;;;5075881;28;19973;-24
2022/06/14 09:45:16;;;;;;;4.97;1.30;;;21.40;99.90;;;;;;5074263;28;20049;-25
2022/06/14 09:48:03;;;;;;;3.58;1.05;;;21.70;99.90;;;;;;5057923;28;20044;-25
2022/06/14 09:51:03;;;;;;;3.53;0.80;;;21.20;99.90;;;;;;5074976;28;20052;-24
2022/06/14 09:53:36;;;;;;;4.07;1.15;;;20.00;99.90;;;;;;5075316;28;20049;-25
2022/06/14 09:56:11;;;;;;;3.88;1.20;;;19.20;99.90;;;;;;5076304;28;20057;-24
2022/06/14 09:58:43;;;;;;;4.07;1.33;;;18.70;99.90;;;;;;5076808;28;20048;-24
2022/06/14 10:01:46;;;;;;;4.03;1.38;;;18.30;99.90;;;;;;5075469;28;20044;-24
2022/06/14 10:04:17;;;;;;;4.43;1.35;;;17.80;1.00;;;;;;5058755;28;20056;-25
2022/06/14 10:07:01;;;;;;;5.78;1.70;;;17.30;1.00;;;;;;5074890;28;20186;-25
2022/06/14 10:09:44;;;;;;;6.25;1.65;;;17.10;1.00;;;;;;5064812;28;20115;-24
2022/06/14 10:12:20;;;;;;;5.25;1.58;;;16.90;1.00;;;;;;5076941;28;20091;-24
2022/06/14 10:15:12;;;;;;;10.00;1.80;;;16.70;1.00;;;;;;5055585;28;20052;-24
2022/06/14 10:18:00;;;;;;;6.85;2.10;;;16.70;13.40;;;;;;5055916;28;20049;-24
2022/06/14 10:20:45;;;;;;;4.78;1.50;;;16.70;22.10;;;;;;5055196;28;20471;-24
2022/06/14 10:23:20;;;;;;;6.03;1.60;;;16.70;58.60;;;;;;5054507;28;20190;-24
2022/06/14 10:28:55;;;;;;;6.65;1.60;;;16.80;99.90;;;;;;5056531;28;20143;-24
2022/06/14 10:31:42;;;;;;;4.85;2.28;;;16.90;99.90;;;;;;5055522;28;20443;-24
2022/06/14 10:34:18;;;;;;;7.05;2.08;;;17.00;99.90;;;;;;5056151;28;20041;-24
2022/06/14 10:36:50;;;;;;;7.70;2.47;;;17.10;99.90;;;;;;5056114;28;20045;-24
2022/06/14 10:39:37;;;;;;;7.15;1.90;;;17.10;99.90;;;;;;5055799;28;20084;-24
2022/06/14 10:42:28;;;;;;;8.23;2.00;;;17.30;99.90;;;;;;5054630;28;20048;-25
2022/06/14 10:45:19;;;;;;;6.38;1.42;;;17.40;71.80;;;;;;5065740;28;20037;-25
2022/06/14 10:48:10;;;;;;;5.65;2.65;;;17.60;58.40;;;;;;5061303;28;20053;-25
2022/06/14 10:50:59;;;;;;;9.27;2.60;;;17.90;14.40;;;;;;5060912;28;20120;-25
2022/06/14 10:53:40;;;;;;;6.03;1.83;;;18.20;30.40;;;;;;5063882;28;20052;-25
2022/06/14 10:56:15;;;;;;;6.60;2.30;;;18.60;1.00;;;;;;5068698;28;20052;-24
2022/06/14 10:59:23;;;;;;;8.23;2.17;;;18.80;1.00;;;;;;5074415;28;20158;-25
2022/06/14 11:02:10;;;;;;;7.82;2.33;;;19.10;1.00;;;;;;5074568;28;20052;-25
2022/06/14 11:04:58;;;;;;;9.05;2.17;;;19.20;1.00;;;;;;5074722;28;20044;-25
2022/06/14 11:08:04;;;;;;;6.22;1.88;;;19.50;1.00;;;;;;5075134;28;20052;-25
2022/06/14 11:11:06;;;;;;;5.85;2.10;;;19.70;1.00;;;;;;5075057;28;20537;-25
2022/06/14 11:13:47;;;;;;;5.30;1.40;;;20.00;99.90;;;;;;5075437;28;20057;-25
2022/06/14 11:16:15;;;;;;;6.43;1.50;;;19.90;1.00;;;;;;5063712;28;20048;-25
2022/06/14 11:19:35;;;;;;;5.35;1.90;;;19.90;99.90;;;;;;5054528;28;20490;-25
2022/06/14 11:22:11;;;;;;;4.35;1.75;;;20.00;99.90;;;;;;5049046;28;20057;-25
2022/06/14 11:24:49;;;;;;;8.93;1.17;;;20.10;99.90;;;;;;5053863;28;20045;-25
2022/06/14 11:27:36;;;;;;;9.43;4.82;;;20.10;99.90;;;;;;5064457;28;20044;-25
2022/06/14 11:30:11;;;;;;;4.55;1.52;;;20.30;99.90;;;;;;5074772;28;20525;-25
2022/06/14 11:32:51;;;;;;;5.03;1.10;;;20.20;99.90;;;;;;5054625;28;20099;-25
2022/06/14 11:35:43;;;;;;;6.22;1.40;;;20.30;99.90;;;;;;5070035;28;20101;-25
2022/06/14 11:38:42;;;;;;;4.40;1.05;;;20.20;99.90;;;;;;5074559;28;20635;-25
2022/06/14 11:41:09;;;;;;;5.30;1.10;;;20.40;99.90;;;;;;5074467;28;20413;-25
2022/06/14 11:43:50;;;;;;;5.63;1.30;;;20.50;99.90;;;;;;5074483;28;20383;-25
2022/06/14 11:46:34;;;;;;;4.82;1.50;;;20.80;99.90;;;;;;5056616;28;20045;-25
2022/06/14 11:49:12;;;;;;;3.80;1.00;;;20.90;99.90;;;;;;5073797;28;20083;-25
2022/06/14 11:51:52;;;;;;;1.88;1.10;;;20.90;99.90;;;;;;5074944;28;20045;-25
2022/06/14 11:54:45;;;;;;;3.65;1.50;;;21.00;99.90;;;;;;5074674;28;20391;-25
2022/06/14 11:57:22;;;;;;;7.50;1.48;;;21.10;99.90;;;;;;5071682;28;20044;-25
2022/06/14 12:00:19;;;;;;;4.28;1.50;;;20.90;99.90;;;;;;5054777;28;20045;-25
2022/06/14 12:02:51;;;;;;;5.80;1.35;;;20.70;99.90;;;;;;5052720;28;20051;-25
2022/06/14 12:05:23;;;;;;;4.07;1.25;;;20.70;99.90;;;;;;5054137;28;20124;-25
2022/06/14 12:08:07;;;;;;;4.50;1.90;;;20.90;99.90;;;;;;5038351;28;20124;-25
2022/06/14 12:10:44;;;;;;;4.28;1.40;;;21.90;99.90;;;;;;5053982;28;20044;-25
2022/06/14 12:13:52;;;;;;;4.13;1.80;;;22.80;29.30;;;;;;5053352;28;20135;-25
2022/06/14 12:16:33;;;;;;;2.88;0.98;;;23.20;1.00;;;;;;5052986;28;20071;-25
2022/06/14 12:19:23;;;;;;;2.25;0.90;;;22.80;1.00;;;;;;5055182;28;20048;-25
2022/06/14 12:21:58;;;;;;;4.35;1.30;;;22.10;1.00;;;;;;5065337;28;20124;-25
2022/06/14 12:27:19;;;;;;;3.08;1.13;;;21.70;1.00;;;;;;5065288;28;20545;-25
2022/06/14 12:29:50;;;;;;;5.05;1.15;;;21.40;1.00;;;;;;5073715;28;20049;-25
2022/06/14 12:32:33;;;;;;;3.78;1.38;;;21.20;1.00;;;;;;5055816;28;20051;-25
2022/06/14 12:35:23;;;;;;;5.55;1.02;;;20.70;1.00;;;;;;5073356;28;20127;-25
2022/06/14 12:38:03;;;;;;;4.15;1.10;;;20.20;20.30;;;;;;5069690;28;20060;-25
2022/06/14 12:40:48;;;;;;;5.57;1.70;;;19.80;85.00;;;;;;5056036;28;20052;-24
2022/06/14 12:43:28;;;;;;;6.82;1.58;;;19.70;99.90;;;;;;5074390;28;20375;-24
2022/06/14 12:46:07;;;;;;;4.85;1.50;;;19.50;99.90;;;;;;5072953;28;20049;-25
2022/06/14 12:48:33;;;;;;;4.30;1.77;;;19.30;99.90;;;;;;5070576;28;20041;-25
2022/06/14 12:51:04;;;;;;;4.63;1.20;;;19.00;99.90;;;;;;5073841;28;20186;-24
2022/06/14 12:53:51;;;;;;;4.20;1.95;;;18.90;99.90;;;;;;5067357;28;20033;-25
2022/06/14 12:56:29;;;;;;;3.30;1.55;;;19.20;99.90;;;;;;5064041;28;20462;-24
2022/06/14 12:59:14;;;;;;;6.53;2.03;;;19.40;99.90;;;;;;5053524;28;20053;-24
2022/06/14 13:02:15;;;;;;;5.93;1.58;;;19.80;99.90;;;;;;5069517;28;20071;-25
2022/06/14 13:05:05;;;;;;;4.60;1.38;;;20.10;99.90;;;;;;5073494;28;20041;-25
2022/06/14 13:08:03;;;;;;;5.38;1.40;;;20.40;99.90;;;;;;5067367;28;20040;-25
2022/06/14 13:11:00;;;;;;;5.75;1.58;;;20.50;99.90;;;;;;5033931;28;20106;-25
2022/06/14 13:13:29;;;;;;;6.75;1.95;;;20.70;61.40;;;;;;5053894;28;20039;-25
2022/06/14 13:16:04;;;;;;;4.70;1.70;;;20.70;82.70;;;;;;5073316;28;20045;-25
2022/06/14 13:19:06;;;;;;;4.68;1.42;;;20.80;99.90;;;;;;5072973;28;20436;-25
2022/06/14 13:21:54;;;;;;;8.23;1.30;;;20.90;99.90;;;;;;5073020;28;20593;-25
2022/06/14 13:24:31;;;;;;;4.63;2.13;;;20.90;99.90;;;;;;5071173;28;20060;-26
2022/06/14 13:27:31;;;;;;;7.22;2.47;;;21.00;99.90;;;;;;5053563;28;20481;-25
2022/06/14 13:30:08;;;;;;;3.42;1.52;;;21.10;54.70;;;;;;5052075;28;20086;-25
2022/06/14 13:32:34;;;;;;;5.60;2.25;;;21.20;76.30;;;;;;5064145;28;20065;-25
2022/06/14 13:35:23;;;;;;;5.38;1.98;;;21.20;53.80;;;;;;5052976;28;20056;-25
2022/06/14 13:37:59;;;;;;;9.05;2.22;;;21.20;52.70;;;;;;5068362;28;20115;-25
2022/06/14 13:40:39;;;;;;;5.45;1.63;;;21.20;86.80;;;;;;5072174;28;20490;-25
2022/06/14 13:43:17;;;;;;;7.00;2.22;;;21.20;23.30;;;;;;5074641;28;20045;-25
2022/06/14 13:45:54;;;;;;;4.85;1.90;;;21.00;14.20;;;;;;5075755;28;20555;-25
2022/06/14 13:48:25;;;;;;;6.28;2.30;;;20.90;1.00;;;;;;5061777;28;20422;-25
2022/06/14 13:51:09;;;;;;;4.30;1.77;;;20.70;1.00;;;;;;5056141;28;20048;-25
2022/06/14 13:53:41;;;;;;;4.30;2.10;;;20.90;18.50;;;;;;5064676;28;20132;-25
2022/06/14 13:56:43;;;;;;;6.17;2.50;;;21.00;1.00;;;;;;5075754;28;20145;-25
2022/06/14 13:59:19;;;;;;;4.05;1.95;;;21.00;1.00;;;;;;5064629;28;20299;-25
2022/06/14 14:01:57;;;;;;;8.88;3.08;;;21.20;1.00;;;;;;5076399;28;20106;-25
2022/06/14 14:04:33;;;;;;;7.47;2.80;;;21.10;1.00;;;;;;5068805;28;20049;-25
2022/06/14 14:07:11;;;;;;;8.93;2.75;;;21.10;29.70;;;;;;5066965;28;20380;-25
2022/06/14 14:09:55;;;;;;;10.25;3.25;;;20.90;96.70;;;;;;5074071;28;20064;-25